CheckWX is a tool to help pilots better visualize weather data.  It is not intended as a substitute for an official pre-flight weather briefing.

22:56:59 UTC

KMCX METAR
White County Airport
Monticello, Indiana, USA
Current

42 mins ago

KMCX 222215Z AUTO 04005KT 10SM CLR 02/M03 A3012 RMK AO2 T00221034
Observed
Nov-22 @ 22:15 UTC
Wind
  • 040° at 5 KTS
Visibility
10 SM
Flight Rules
VFR
Cloud Levels
  • Clear skies
Temperature
C / 36°F
Dewpoint
-3°C / 27°F
Humidity
70%
Altimeter
30.12" Hg
Pressure
1020.02 hPa
Previous

1 hour ago

KMCX 222155Z AUTO 01006KT 10SM CLR 03/M03 A3012 RMK AO2 T00301031
Observed
Nov-22 @ 21:55 UTC
Wind
  • 010° at 6 KTS
Visibility
10 SM
Flight Rules
VFR
Cloud Levels
  • Clear skies
Temperature
C / 37°F
Dewpoint
-3°C / 27°F
Humidity
65%
Altimeter
30.12" Hg
Pressure
1020.02 hPa
Previous

1 hour ago

KMCX 222135Z AUTO 36006KT 10SM CLR 03/M03 A3013 RMK AO2 T00321035
Observed
Nov-22 @ 21:35 UTC
Wind
  • 360° at 6 KTS
Visibility
10 SM
Flight Rules
VFR
Cloud Levels
  • Clear skies
Temperature
C / 37°F
Dewpoint
-4°C / 25°F
Humidity
60%
Altimeter
30.13" Hg
Pressure
1020.32 hPa